createdAt,value
2023-05-08T00:00:59.513Z,6.50
2023-05-08T00:03:26.618Z,6.70
2023-05-08T00:05:55.396Z,6.72
2023-05-08T00:08:21.778Z,6.82
2023-05-08T00:10:48.164Z,7.10
2023-05-08T00:13:14.621Z,7.45
2023-05-08T00:15:41.040Z,8.25
2023-05-08T00:18:07.459Z,10.20
2023-05-08T00:20:34.509Z,9.75
2023-05-08T00:23:01.090Z,7.30
2023-05-08T00:25:27.855Z,7.70
2023-05-08T00:27:54.259Z,8.52
2023-05-08T00:30:21.298Z,7.43
2023-05-08T00:32:47.777Z,7.32
2023-05-08T00:35:14.221Z,7.75
2023-05-08T00:37:41.277Z,8.73
2023-05-08T00:40:11.972Z,8.63
2023-05-08T00:42:38.601Z,7.03
2023-05-08T00:45:05.403Z,7.68
2023-05-08T00:47:32.684Z,7.18
2023-05-08T00:49:59.834Z,7.85
2023-05-08T00:52:27.995Z,7.65
2023-05-08T00:54:54.804Z,7.90
2023-05-08T00:57:22.472Z,7.90
2023-05-08T01:04:46.849Z,7.60
2023-05-08T01:07:13.193Z,8.35
2023-05-08T01:09:39.851Z,8.15
2023-05-08T01:12:45.019Z,8.10
2023-05-08T01:15:17.377Z,8.00
2023-05-08T01:17:49.786Z,8.07
2023-05-08T01:20:36.550Z,8.32
2023-05-08T01:23:08.977Z,10.25
2023-05-08T01:25:57.164Z,8.63
2023-05-08T01:28:52.021Z,10.20
2023-05-08T01:31:26.241Z,8.00
2023-05-08T01:34:17.887Z,10.70
2023-05-08T01:36:52.945Z,7.93
2023-05-08T01:39:26.493Z,10.23
2023-05-08T01:42:22.516Z,9.95
2023-05-08T01:44:56.370Z,8.73
2023-05-08T01:47:26.821Z,9.00
2023-05-08T01:50:04.299Z,8.55
2023-05-08T01:55:04.093Z,8.25
2023-05-08T01:57:33.432Z,8.15
2023-05-08T02:00:02.445Z,8.68
2023-05-08T02:02:30.652Z,8.77
2023-05-08T02:04:58.248Z,8.93
2023-05-08T02:07:26.033Z,8.35
2023-05-08T02:09:54.573Z,9.48
2023-05-08T02:12:22.503Z,8.93
2023-05-08T02:14:50.617Z,10.73
2023-05-08T02:17:17.543Z,9.05
2023-05-08T02:19:45.288Z,8.65
2023-05-08T02:22:13.843Z,8.50
2023-05-08T02:24:41.915Z,9.32
2023-05-08T02:27:09.948Z,8.00
2023-05-08T02:29:37.457Z,8.90
2023-05-08T02:32:04.190Z,8.77
2023-05-08T02:34:32.643Z,8.50
2023-05-08T02:37:00.002Z,8.68
2023-05-08T02:39:30.263Z,8.45
2023-05-08T02:41:56.949Z,9.35
2023-05-08T02:44:23.347Z,8.83
2023-05-08T02:46:56.820Z,9.68
2023-05-08T02:49:36.854Z,8.57
2023-05-08T02:52:14.638Z,8.60
2023-05-08T02:54:51.471Z,9.43
2023-05-08T02:57:24.766Z,8.38
2023-05-08T03:00:06.212Z,10.82
2023-05-08T03:02:39.361Z,8.65
2023-05-08T03:05:30.537Z,8.90
2023-05-08T03:08:02.110Z,10.27
2023-05-08T03:10:33.765Z,10.43
2023-05-08T03:13:03.629Z,10.18
2023-05-08T03:15:38.333Z,9.48
2023-05-08T03:18:11.789Z,9.35
2023-05-08T03:20:41.967Z,9.48
2023-05-08T03:23:10.981Z,10.25
2023-05-08T03:25:38.659Z,9.18
2023-05-08T03:30:36.945Z,13.13
2023-05-08T03:33:07.624Z,14.20
2023-05-08T03:35:37.045Z,10.85
2023-05-08T03:38:04.431Z,9.85
2023-05-08T03:40:30.914Z,11.10
2023-05-08T03:42:58.553Z,12.27
2023-05-08T03:50:20.388Z,9.70
2023-05-08T03:52:46.987Z,11.23
2023-05-08T03:55:13.408Z,10.43
2023-05-08T03:58:01.104Z,10.20
2023-05-08T04:00:52.318Z,10.52
2023-05-08T04:03:27.697Z,11.02
2023-05-08T04:06:11.881Z,9.60
2023-05-08T04:09:02.155Z,11.50
2023-05-08T04:11:34.887Z,10.48
2023-05-08T04:14:06.381Z,10.30
2023-05-08T04:16:38.726Z,10.20
2023-05-08T04:19:10.912Z,11.93
2023-05-08T04:21:42.226Z,9.20
2023-05-08T04:24:12.602Z,11.75
2023-05-08T04:26:40.212Z,10.13
2023-05-08T04:29:07.334Z,10.57
2023-05-08T04:31:35.292Z,10.73
2023-05-08T04:34:03.232Z,11.60
2023-05-08T04:36:31.755Z,13.50
2023-05-08T04:38:59.180Z,10.50
2023-05-08T04:41:26.293Z,8.70
2023-05-08T04:43:53.758Z,10.25
2023-05-08T04:46:20.143Z,9.30
2023-05-08T04:48:46.542Z,10.40
2023-05-08T04:51:12.915Z,9.20
2023-05-08T04:53:39.445Z,9.15
2023-05-08T04:56:05.909Z,8.25
2023-05-08T04:58:32.270Z,8.98
2023-05-08T05:01:02.222Z,8.38
2023-05-08T05:03:28.621Z,9.88
2023-05-08T05:05:59.386Z,8.35
2023-05-08T05:08:25.936Z,7.55
2023-05-08T05:10:52.657Z,7.07
2023-05-08T05:13:19.873Z,7.38
2023-05-08T05:15:46.552Z,8.25
2023-05-08T05:18:13.175Z,6.63
2023-05-08T05:20:39.643Z,7.80
2023-05-08T05:23:06.019Z,7.22
2023-05-08T05:25:32.410Z,7.05
2023-05-08T05:27:58.746Z,7.18
2023-05-08T05:30:25.106Z,6.60
2023-05-08T05:32:51.492Z,6.80
2023-05-08T05:35:17.969Z,9.50
2023-05-08T05:37:44.363Z,8.15
2023-05-08T05:40:13.262Z,9.30
2023-05-08T05:42:39.624Z,6.82
2023-05-08T05:45:06.636Z,6.88
2023-05-08T05:47:33.041Z,7.28
2023-05-08T05:49:59.467Z,8.88
2023-05-08T05:52:25.861Z,6.95
2023-05-08T05:54:52.224Z,8.35
2023-05-08T05:57:18.649Z,6.40
2023-05-08T05:59:45.163Z,6.90
2023-05-08T06:02:18.345Z,7.65
2023-05-08T06:04:44.989Z,6.95
2023-05-08T06:07:11.373Z,7.22
2023-05-08T06:09:37.729Z,7.20
2023-05-08T06:12:04.070Z,6.47
2023-05-08T06:14:30.452Z,6.53
2023-05-08T06:16:56.900Z,7.00
2023-05-08T06:19:24.540Z,7.45
2023-05-08T06:24:17.901Z,6.75
2023-05-08T06:26:44.251Z,7.32
2023-05-08T06:29:10.610Z,6.32
2023-05-08T06:31:37.027Z,6.25
2023-05-08T06:34:03.828Z,6.32
2023-05-08T06:36:30.722Z,6.13
2023-05-08T06:38:57.440Z,5.88
2023-05-08T06:41:23.820Z,5.45
2023-05-08T06:43:50.288Z,5.15
2023-05-08T06:46:16.688Z,5.25
2023-05-08T06:48:43.044Z,4.93
2023-05-08T06:51:09.437Z,6.40
2023-05-08T06:53:35.790Z,7.78
2023-05-08T06:56:02.171Z,6.72
2023-05-08T06:58:28.537Z,7.53
2023-05-08T07:00:54.937Z,8.32
2023-05-08T07:03:21.542Z,5.30
2023-05-08T07:05:47.943Z,6.70
2023-05-08T07:08:14.343Z,6.35
2023-05-08T07:10:40.848Z,7.57
2023-05-08T07:13:07.332Z,5.93
2023-05-08T07:15:33.871Z,5.63
2023-05-08T07:18:00.613Z,6.47
2023-05-08T07:20:27.213Z,5.75
2023-05-08T07:22:53.649Z,5.83
2023-05-08T07:25:20.010Z,6.78
2023-05-08T07:27:46.491Z,5.60
2023-05-08T07:30:13.122Z,6.55
2023-05-08T07:32:39.853Z,6.15
2023-05-08T07:35:10.436Z,4.70
2023-05-08T07:37:37.586Z,5.43
2023-05-08T07:40:04.232Z,6.38
2023-05-08T07:42:30.634Z,7.30
2023-05-08T07:44:56.987Z,5.05
2023-05-08T07:47:23.404Z,5.20
2023-05-08T07:49:49.813Z,4.50
2023-05-08T07:52:16.663Z,4.88
2023-05-08T07:54:43.727Z,4.80
2023-05-08T07:57:10.113Z,4.90
2023-05-08T07:59:36.468Z,5.15
2023-05-08T08:02:02.924Z,4.05
2023-05-08T08:04:29.333Z,4.43
2023-05-08T08:06:55.784Z,4.93
2023-05-08T08:09:22.113Z,4.10
2023-05-08T08:11:48.476Z,4.90
2023-05-08T08:14:14.815Z,4.38
2023-05-08T08:16:42.563Z,4.45
2023-05-08T08:19:09.102Z,4.07
2023-05-08T08:21:35.725Z,6.50
2023-05-08T08:24:02.090Z,3.63
2023-05-08T08:26:28.445Z,5.28
2023-05-08T08:28:54.822Z,3.70
2023-05-08T08:31:21.208Z,3.65
2023-05-08T08:33:47.603Z,3.70
2023-05-08T08:36:14.836Z,3.50
2023-05-08T08:38:41.582Z,3.28
2023-05-08T08:41:08.394Z,3.20
2023-05-08T08:43:35.022Z,2.88
2023-05-08T08:46:11.679Z,2.80
2023-05-08T08:48:41.510Z,3.17
2023-05-08T08:51:13.656Z,5.43
2023-05-08T08:53:45.904Z,3.30
2023-05-08T08:56:14.093Z,3.17
2023-05-08T08:58:50.938Z,3.00
2023-05-08T09:01:20.514Z,2.45
2023-05-08T09:03:48.376Z,3.13
2023-05-08T09:06:17.200Z,2.50
2023-05-08T09:08:43.837Z,3.03
2023-05-08T09:11:10.232Z,2.60
2023-05-08T09:13:36.713Z,2.90
2023-05-08T09:16:04.085Z,2.77
2023-05-08T09:18:30.717Z,2.70
2023-05-08T09:20:57.387Z,2.80
2023-05-08T09:23:23.858Z,4.07
2023-05-08T09:25:53.813Z,2.88
2023-05-08T09:28:22.270Z,2.95
2023-05-08T09:30:50.083Z,2.33
2023-05-08T09:33:17.149Z,2.70
2023-05-08T09:35:43.542Z,1.90
2023-05-08T09:38:09.927Z,3.15
2023-05-08T09:40:36.397Z,4.78
2023-05-08T09:43:15.997Z,1.90
2023-05-08T09:45:42.712Z,1.88
2023-05-08T09:48:10.918Z,2.15
2023-05-08T09:50:37.665Z,1.98
2023-05-08T09:53:04.142Z,2.72
2023-05-08T09:55:46.384Z,2.17
2023-05-08T09:58:12.723Z,1.70
2023-05-08T10:00:39.850Z,1.58
2023-05-08T10:03:06.239Z,1.80
2023-05-08T10:05:35.606Z,2.03
2023-05-08T10:08:19.011Z,2.33
2023-05-08T10:10:45.463Z,2.65
2023-05-08T10:13:11.890Z,1.80
2023-05-08T10:15:42.073Z,2.00
2023-05-08T10:18:09.494Z,2.58
2023-05-08T10:20:39.522Z,1.88
2023-05-08T10:23:11.939Z,2.97
2023-05-08T10:25:45.055Z,1.90
2023-05-08T10:28:43.158Z,3.15
2023-05-08T10:31:12.343Z,2.22
2023-05-08T10:33:40.792Z,1.60
2023-05-08T10:36:09.640Z,2.58
2023-05-08T10:38:37.489Z,2.63
2023-05-08T10:41:04.282Z,2.78
2023-05-08T10:43:33.561Z,2.80
2023-05-08T10:46:08.308Z,3.33
2023-05-08T10:49:05.226Z,3.53
2023-05-08T10:54:21.923Z,2.80
2023-05-08T10:56:49.002Z,2.85
2023-05-08T10:59:19.783Z,4.10
2023-05-08T11:01:49.831Z,2.25
2023-05-08T11:04:21.689Z,2.00
2023-05-08T11:06:52.771Z,3.28
2023-05-08T11:09:26.970Z,3.33
2023-05-08T11:12:30.553Z,1.65
2023-05-08T11:15:06.497Z,1.63
2023-05-08T11:17:34.077Z,3.00
2023-05-08T11:20:03.223Z,3.25
2023-05-08T11:22:31.390Z,2.33
2023-05-08T11:25:09.724Z,2.13
2023-05-08T11:28:04.569Z,2.15
2023-05-08T11:30:30.949Z,3.35
2023-05-08T11:32:59.586Z,1.90
2023-05-08T11:35:43.650Z,1.90
2023-05-08T11:38:21.951Z,2.08
2023-05-08T11:41:05.071Z,3.10
2023-05-08T11:43:44.821Z,4.78
2023-05-08T11:46:16.952Z,1.77
2023-05-08T11:48:44.059Z,1.80
2023-05-08T11:51:10.799Z,2.50
2023-05-08T11:53:38.141Z,3.00
2023-05-08T11:56:04.933Z,2.03
2023-05-08T11:58:31.341Z,3.58
2023-05-08T12:00:57.964Z,2.50
2023-05-08T12:03:25.464Z,1.90
2023-05-08T12:05:56.524Z,1.85
2023-05-08T12:08:23.559Z,3.08
2023-05-08T12:10:54.349Z,2.15
2023-05-08T12:13:22.079Z,2.15
2023-05-08T12:15:50.865Z,1.75
2023-05-08T12:18:17.458Z,3.35
2023-05-08T12:20:45.944Z,2.03
2023-05-08T12:23:12.697Z,2.50
2023-05-08T12:25:40.042Z,1.90
2023-05-08T12:30:37.170Z,2.25
2023-05-08T12:33:06.713Z,1.85
2023-05-08T12:35:33.700Z,2.55
2023-05-08T12:38:05.495Z,2.00
2023-05-08T12:40:40.466Z,1.70
2023-05-08T12:43:06.868Z,3.25
2023-05-08T12:45:35.746Z,2.65
2023-05-08T12:48:04.900Z,2.05
2023-05-08T12:50:38.673Z,1.70
2023-05-08T12:53:06.853Z,1.60
2023-05-08T12:55:35.258Z,1.48
2023-05-08T12:58:06.819Z,3.92
2023-05-08T13:00:51.864Z,3.38
2023-05-08T13:03:26.768Z,2.53
2023-05-08T13:05:56.072Z,1.73
2023-05-08T13:08:38.784Z,2.00
2023-05-08T13:11:06.594Z,3.30
2023-05-08T13:13:35.191Z,8.00
2023-05-08T13:16:06.553Z,3.72
2023-05-08T13:18:33.604Z,1.98
2023-05-08T13:21:02.013Z,1.92
2023-05-08T13:23:28.563Z,3.30
2023-05-08T13:25:55.800Z,2.15
2023-05-08T13:28:22.194Z,2.03
2023-05-08T13:30:48.547Z,1.85
2023-05-08T13:33:14.958Z,1.95
2023-05-08T13:35:41.328Z,2.40
2023-05-08T13:38:07.746Z,1.95
2023-05-08T13:40:34.179Z,2.37
2023-05-08T13:43:00.658Z,2.00
2023-05-08T13:45:27.073Z,1.90
2023-05-08T13:47:54.252Z,2.03
2023-05-08T13:50:21.773Z,2.67
2023-05-08T13:52:48.985Z,4.47
2023-05-08T13:55:15.959Z,2.33
2023-05-08T13:57:42.840Z,2.30
2023-05-08T14:00:10.201Z,5.45
2023-05-08T14:05:05.350Z,3.60
2023-05-08T14:07:31.925Z,6.38
2023-05-08T14:09:58.369Z,2.25
2023-05-08T14:12:24.726Z,3.78
2023-05-08T14:14:51.129Z,3.83
2023-05-08T14:17:17.558Z,5.35
2023-05-08T14:19:44.120Z,2.03
2023-05-08T14:22:10.509Z,2.75
2023-05-08T14:24:36.938Z,2.60
2023-05-08T14:27:05.916Z,2.58
2023-05-08T14:29:33.796Z,2.30
2023-05-08T14:32:00.442Z,3.78
2023-05-08T14:34:26.913Z,3.80
2023-05-08T14:36:53.394Z,4.93
2023-05-08T14:39:20.112Z,3.27
2023-05-08T14:42:05.177Z,4.07
2023-05-08T14:44:32.901Z,5.10
2023-05-08T14:46:59.316Z,2.73
2023-05-08T14:49:36.799Z,2.85
2023-05-08T14:52:04.658Z,2.60
2023-05-08T14:54:31.622Z,3.72
2023-05-08T14:56:58.144Z,2.50
2023-05-08T14:59:24.523Z,2.38
2023-05-08T15:01:51.087Z,4.20
2023-05-08T15:04:17.760Z,2.25
2023-05-08T15:06:44.348Z,3.30
2023-05-08T15:09:10.835Z,3.20
2023-05-08T15:11:37.247Z,3.03
2023-05-08T15:14:04.934Z,5.68
2023-05-08T15:16:31.425Z,3.40
2023-05-08T15:18:57.803Z,6.63
2023-05-08T15:21:26.613Z,2.45
2023-05-08T15:23:54.112Z,2.58
2023-05-08T15:28:47.522Z,2.58
2023-05-08T15:31:14.056Z,5.03
2023-05-08T15:33:44.654Z,3.53
2023-05-08T15:36:14.272Z,3.40
2023-05-08T15:38:41.181Z,2.75
2023-05-08T15:41:07.866Z,2.47
2023-05-08T15:43:34.206Z,2.92
2023-05-08T15:46:00.680Z,3.22
2023-05-08T15:48:27.095Z,3.30
2023-05-08T15:50:53.524Z,2.38
2023-05-08T15:53:19.884Z,2.20
2023-05-08T15:55:46.253Z,2.60
2023-05-08T15:58:12.615Z,3.95
2023-05-08T16:00:44.619Z,4.15
2023-05-08T16:03:11.940Z,5.53
2023-05-08T16:05:39.471Z,3.53
2023-05-08T16:10:32.399Z,3.95
2023-05-08T16:12:58.853Z,3.33
2023-05-08T16:15:25.411Z,2.67
2023-05-08T16:17:51.802Z,3.70
2023-05-08T16:20:18.169Z,2.47
2023-05-08T16:22:44.577Z,2.65
2023-05-08T16:25:11.086Z,3.60
2023-05-08T16:27:37.650Z,2.42
2023-05-08T16:30:04.417Z,3.38
2023-05-08T16:32:30.837Z,2.30
2023-05-08T16:34:57.270Z,3.00
2023-05-08T16:37:23.648Z,4.47
2023-05-08T16:39:49.993Z,2.80
2023-05-08T16:42:18.635Z,4.25
2023-05-08T16:44:45.179Z,2.85
2023-05-08T16:47:11.571Z,2.70
2023-05-08T16:49:37.958Z,4.40
2023-05-08T16:52:04.468Z,3.00
2023-05-08T16:54:30.830Z,5.68
2023-05-08T16:56:57.200Z,2.92
2023-05-08T16:59:23.570Z,4.72
2023-05-08T17:01:49.999Z,5.70
2023-05-08T17:04:16.375Z,3.37
2023-05-08T17:06:42.729Z,3.45
2023-05-08T17:09:09.107Z,3.58
2023-05-08T17:11:35.442Z,4.72
2023-05-08T17:14:01.849Z,3.50
2023-05-08T17:16:28.393Z,5.10
2023-05-08T17:18:54.823Z,5.63
2023-05-08T17:21:21.286Z,5.22
2023-05-08T17:23:48.039Z,5.87
2023-05-08T17:26:14.419Z,4.60
2023-05-08T17:28:41.090Z,5.35
2023-05-08T17:31:07.498Z,4.85
2023-05-08T17:33:33.872Z,4.72
2023-05-08T17:36:01.261Z,4.28
2023-05-08T17:38:28.025Z,4.30
2023-05-08T17:40:54.432Z,3.97
2023-05-08T17:43:20.967Z,4.95
2023-05-08T17:45:47.438Z,4.40
2023-05-08T17:48:14.156Z,4.57
2023-05-08T17:50:42.181Z,6.47
2023-05-08T17:53:08.511Z,6.82
2023-05-08T17:55:34.992Z,6.63
2023-05-08T17:58:01.420Z,4.50
2023-05-08T18:00:27.780Z,5.25
2023-05-08T18:02:54.328Z,5.05
2023-05-08T18:05:20.843Z,5.15
2023-05-08T18:07:47.194Z,5.60
2023-05-08T18:10:13.800Z,6.20
2023-05-08T18:12:40.480Z,5.30
2023-05-08T18:15:07.932Z,7.47
2023-05-08T18:17:34.309Z,5.10
2023-05-08T18:20:04.009Z,5.28
2023-05-08T18:22:31.044Z,8.68
2023-05-08T18:24:57.652Z,6.85
2023-05-08T18:27:24.347Z,5.17
2023-05-08T18:29:50.700Z,5.10
2023-05-08T18:32:17.110Z,5.68
2023-05-08T18:34:43.572Z,5.55
2023-05-08T18:37:10.000Z,6.50
2023-05-08T18:39:37.653Z,6.38
2023-05-08T18:42:04.019Z,5.72
2023-05-08T18:44:30.703Z,4.95
2023-05-08T18:46:57.080Z,5.20
2023-05-08T18:49:23.531Z,5.63
2023-05-08T18:51:49.896Z,6.68
2023-05-08T18:54:16.630Z,7.63
2023-05-08T18:56:42.975Z,4.90
2023-05-08T18:59:09.327Z,5.05
2023-05-08T19:01:35.885Z,6.18
2023-05-08T19:04:04.150Z,9.43
2023-05-08T19:06:31.300Z,4.70
2023-05-08T19:08:57.663Z,6.80
2023-05-08T19:11:24.087Z,7.32
2023-05-08T19:13:51.795Z,6.30
2023-05-08T19:16:18.272Z,5.03
2023-05-08T19:18:44.624Z,7.93
2023-05-08T19:21:10.978Z,7.50
2023-05-08T19:23:37.656Z,6.05
2023-05-08T19:26:04.022Z,6.90
2023-05-08T19:28:30.357Z,5.20
2023-05-08T19:30:56.742Z,7.72
2023-05-08T19:33:23.111Z,4.60
2023-05-08T19:35:49.671Z,6.47
2023-05-08T19:38:16.189Z,5.72
2023-05-08T19:40:55.439Z,6.22
2023-05-08T19:43:23.284Z,6.15
2023-05-08T19:45:49.693Z,5.63
2023-05-08T19:48:18.012Z,5.07
2023-05-08T19:50:44.707Z,6.97
2023-05-08T19:53:11.151Z,5.22
2023-05-08T19:55:37.495Z,10.13
2023-05-08T19:58:03.864Z,5.15
2023-05-08T20:00:30.233Z,4.80
2023-05-08T20:02:56.692Z,6.72
2023-05-08T20:05:23.473Z,5.60
2023-05-08T20:07:50.035Z,5.20
2023-05-08T20:10:16.630Z,7.45
2023-05-08T20:12:43.356Z,7.45
2023-05-08T20:15:10.451Z,5.50
2023-05-08T20:17:36.858Z,6.00
2023-05-08T20:20:03.459Z,6.13
2023-05-08T20:22:29.863Z,4.77
2023-05-08T20:24:56.219Z,6.07
2023-05-08T20:27:22.564Z,5.00
2023-05-08T20:29:48.893Z,4.95
2023-05-08T20:32:16.403Z,5.65
2023-05-08T20:37:10.574Z,6.10
2023-05-08T20:39:36.956Z,7.72
2023-05-08T20:42:03.371Z,9.57
2023-05-08T20:44:29.758Z,5.18
2023-05-08T20:46:56.147Z,5.00
2023-05-08T20:49:22.549Z,5.97
2023-05-08T20:51:48.920Z,5.05
2023-05-08T20:54:15.342Z,4.85
2023-05-08T20:56:41.723Z,5.80
2023-05-08T20:59:08.334Z,5.03
2023-05-08T21:01:34.824Z,8.17
2023-05-08T21:04:01.266Z,4.95
2023-05-08T21:06:27.662Z,4.80
2023-05-08T21:08:54.077Z,5.15
2023-05-08T21:11:21.071Z,5.10
2023-05-08T21:13:47.453Z,4.78
2023-05-08T21:16:13.820Z,5.75
2023-05-08T21:18:40.460Z,6.60
2023-05-08T21:21:14.886Z,5.37
2023-05-08T21:23:41.247Z,6.03
2023-05-08T21:26:07.585Z,8.45
2023-05-08T21:28:34.277Z,5.00
2023-05-08T21:31:00.876Z,6.40
2023-05-08T21:33:27.428Z,7.47
2023-05-08T21:35:53.811Z,5.40
2023-05-08T21:38:20.188Z,4.80
2023-05-08T21:40:46.538Z,5.63
2023-05-08T21:43:12.912Z,5.03
2023-05-08T21:45:39.261Z,8.23
2023-05-08T21:48:05.935Z,6.15
2023-05-08T21:50:32.314Z,6.97
2023-05-08T21:52:58.729Z,6.75
2023-05-08T21:55:25.132Z,4.90
2023-05-08T21:57:52.020Z,7.70
2023-05-08T22:00:18.970Z,6.05
2023-05-08T22:02:45.474Z,5.53
2023-05-08T22:05:12.124Z,5.10
2023-05-08T22:07:38.672Z,5.30
2023-05-08T22:10:05.708Z,9.43
2023-05-08T22:12:32.042Z,6.80
2023-05-08T22:14:58.407Z,6.18
2023-05-08T22:17:24.861Z,5.18
2023-05-08T22:19:51.246Z,5.20
2023-05-08T22:22:17.593Z,4.65
2023-05-08T22:24:43.985Z,6.60
2023-05-08T22:27:10.397Z,4.50
2023-05-08T22:29:36.757Z,4.55
2023-05-08T22:32:03.374Z,5.97
2023-05-08T22:34:29.791Z,8.50
2023-05-08T22:36:56.189Z,5.82
2023-05-08T22:39:22.534Z,5.05
2023-05-08T22:41:48.922Z,5.32
2023-05-08T22:44:15.341Z,4.43
2023-05-08T22:46:41.832Z,4.45
2023-05-08T22:49:09.204Z,5.90
2023-05-08T22:51:36.069Z,5.78
2023-05-08T22:54:02.536Z,5.88
2023-05-08T22:56:28.867Z,5.68
2023-05-08T22:58:55.219Z,4.85
2023-05-08T23:01:22.346Z,6.32
2023-05-08T23:03:52.196Z,5.82
2023-05-08T23:06:18.566Z,5.30
2023-05-08T23:08:44.978Z,6.72
2023-05-08T23:11:11.373Z,6.20
2023-05-08T23:13:37.768Z,7.57
2023-05-08T23:16:04.607Z,5.43
2023-05-08T23:18:31.067Z,7.15
2023-05-08T23:20:57.405Z,5.22
2023-05-08T23:23:23.850Z,7.75
2023-05-08T23:25:50.236Z,6.85
2023-05-08T23:28:16.591Z,5.18
2023-05-08T23:30:42.960Z,7.35
2023-05-08T23:33:09.361Z,6.25
2023-05-08T23:35:35.767Z,5.50
2023-05-08T23:38:02.095Z,6.07
2023-05-08T23:40:28.527Z,6.00
2023-05-08T23:42:54.898Z,5.50
2023-05-08T23:45:21.265Z,5.00
2023-05-08T23:47:47.636Z,8.63
2023-05-08T23:50:14.009Z,4.88
2023-05-08T23:52:41.248Z,5.43
2023-05-08T23:55:08.144Z,5.68
2023-05-08T23:57:34.569Z,5.13
